createdAt,value
2023-03-03T00:01:41.850Z,13.77
2023-03-03T00:04:27.682Z,13.90
2023-03-03T00:07:15.534Z,14.35
2023-03-03T00:10:01.374Z,14.70
2023-03-03T00:12:49.031Z,13.93
2023-03-03T00:15:36.413Z,14.52
2023-03-03T00:18:30.980Z,15.73
2023-03-03T00:21:26.482Z,15.20
2023-03-03T00:24:21.983Z,16.10
2023-03-03T00:27:32.091Z,15.05
2023-03-03T00:30:26.367Z,13.88
2023-03-03T00:33:33.159Z,14.93
2023-03-03T00:36:31.717Z,13.75
2023-03-03T00:39:17.422Z,14.43
2023-03-03T00:42:10.698Z,13.75
2023-03-03T00:44:59.093Z,16.77
2023-03-03T00:47:45.313Z,16.38
2023-03-03T00:50:35.323Z,16.02
2023-03-03T00:53:23.605Z,16.17
2023-03-03T00:56:09.744Z,13.32
2023-03-03T00:58:55.699Z,12.68
2023-03-03T01:01:42.020Z,13.52
2023-03-03T01:04:27.841Z,12.95
2023-03-03T01:07:13.913Z,11.77
2023-03-03T01:10:00.028Z,13.38
2023-03-03T01:12:45.980Z,12.40
2023-03-03T01:15:31.991Z,12.40
2023-03-03T01:18:18.704Z,12.73
2023-03-03T01:21:05.625Z,12.93
2023-03-03T01:23:51.358Z,12.65
2023-03-03T01:26:37.676Z,12.73
2023-03-03T01:29:24.646Z,11.80
2023-03-03T01:32:10.684Z,12.40
2023-03-03T01:34:56.713Z,12.25
2023-03-03T01:37:42.680Z,13.05
2023-03-03T01:40:30.902Z,12.55
2023-03-03T01:43:16.949Z,12.77
2023-03-03T01:46:02.688Z,11.60
2023-03-03T01:48:48.676Z,12.43
2023-03-03T01:51:39.222Z,12.60
2023-03-03T01:54:29.080Z,12.80
2023-03-03T01:57:19.852Z,12.52
2023-03-03T02:00:06.728Z,13.98
2023-03-03T02:02:58.772Z,13.85
2023-03-03T02:05:45.006Z,12.27
2023-03-03T02:08:37.344Z,11.23
2023-03-03T02:11:23.625Z,10.70
2023-03-03T02:14:11.142Z,10.80
2023-03-03T02:17:02.339Z,10.80
2023-03-03T02:20:08.069Z,10.77
2023-03-03T02:22:58.862Z,10.98
2023-03-03T02:25:58.804Z,11.07
2023-03-03T02:28:46.559Z,10.98
2023-03-03T02:31:33.380Z,10.70
2023-03-03T02:34:19.233Z,10.48
2023-03-03T02:37:05.473Z,10.30
2023-03-03T02:39:51.661Z,11.73
2023-03-03T02:42:37.931Z,10.98
2023-03-03T02:45:24.038Z,13.02
2023-03-03T02:48:10.494Z,13.07
2023-03-03T02:50:57.775Z,12.93
2023-03-03T02:53:43.888Z,14.38
2023-03-03T02:56:29.850Z,14.80
2023-03-03T02:59:17.201Z,14.15
2023-03-03T03:02:08.839Z,15.07
2023-03-03T03:04:55.033Z,12.82
2023-03-03T03:07:43.979Z,12.57
2023-03-03T03:10:29.837Z,12.55
2023-03-03T03:13:15.790Z,12.55
2023-03-03T03:16:03.149Z,11.88
2023-03-03T03:18:50.760Z,11.75
2023-03-03T03:21:37.428Z,10.95
2023-03-03T03:24:25.270Z,11.30
2023-03-03T03:27:17.215Z,11.27
2023-03-03T03:30:03.630Z,11.52
2023-03-03T03:32:50.393Z,10.43
2023-03-03T03:35:37.120Z,11.45
2023-03-03T03:38:24.768Z,10.43
2023-03-03T03:41:11.921Z,10.82
2023-03-03T03:43:57.860Z,10.75
2023-03-03T03:46:43.924Z,11.20
2023-03-03T03:49:30.479Z,11.73
2023-03-03T03:52:18.111Z,12.15
2023-03-03T03:55:05.271Z,13.80
2023-03-03T03:57:52.194Z,13.90
2023-03-03T04:00:42.343Z,12.35
2023-03-03T04:03:28.907Z,10.52
2023-03-03T04:06:15.120Z,10.80
2023-03-03T04:09:01.780Z,10.85
2023-03-03T04:11:49.086Z,9.45
2023-03-03T04:14:36.050Z,10.13
2023-03-03T04:17:25.044Z,10.15
2023-03-03T04:20:14.093Z,9.70
2023-03-03T04:23:00.276Z,9.63
2023-03-03T04:25:47.165Z,9.20
2023-03-03T04:28:34.051Z,9.82
2023-03-03T04:31:20.808Z,10.68
2023-03-03T04:34:07.965Z,10.32
2023-03-03T04:36:54.475Z,11.23
2023-03-03T04:39:40.421Z,11.35
2023-03-03T04:42:28.277Z,10.65
2023-03-03T04:45:14.853Z,11.85
2023-03-03T04:48:01.037Z,12.10
2023-03-03T04:50:47.505Z,13.15
2023-03-03T04:53:33.371Z,12.77
2023-03-03T04:56:19.057Z,11.15
2023-03-03T04:59:05.219Z,10.50
2023-03-03T05:01:51.676Z,10.55
2023-03-03T05:04:37.399Z,11.13
2023-03-03T05:07:24.099Z,12.13
2023-03-03T05:10:11.075Z,15.18
2023-03-03T05:12:57.353Z,13.30
2023-03-03T05:15:43.475Z,13.65
2023-03-03T05:18:29.166Z,13.57
2023-03-03T05:21:15.077Z,14.07
2023-03-03T05:24:00.996Z,14.80
2023-03-03T05:26:46.790Z,13.88
2023-03-03T05:29:33.954Z,12.68
2023-03-03T05:32:19.792Z,13.65
2023-03-03T05:35:06.087Z,12.38
2023-03-03T05:37:52.816Z,13.80
2023-03-03T05:40:39.005Z,13.77
2023-03-03T05:43:25.288Z,13.90
2023-03-03T05:46:12.297Z,13.23
2023-03-03T05:48:58.545Z,14.55
2023-03-03T05:51:44.453Z,15.88
2023-03-03T05:54:30.276Z,17.77
2023-03-03T05:57:16.348Z,17.38
2023-03-03T06:00:05.813Z,17.40
2023-03-03T06:02:58.126Z,19.48
2023-03-03T06:05:44.135Z,17.90
2023-03-03T06:08:30.689Z,17.02
2023-03-03T06:11:18.692Z,15.15
2023-03-03T06:14:05.317Z,17.55
2023-03-03T06:16:51.591Z,16.75
2023-03-03T06:19:37.895Z,17.17
2023-03-03T06:22:28.833Z,18.30
2023-03-03T06:25:15.098Z,17.85
2023-03-03T06:28:00.925Z,16.48
2023-03-03T06:30:46.808Z,17.30
2023-03-03T06:33:32.617Z,16.50
2023-03-03T06:36:18.932Z,18.42
2023-03-03T06:39:04.866Z,17.13
2023-03-03T06:41:50.587Z,18.25
2023-03-03T06:44:36.656Z,17.48
2023-03-03T06:47:22.835Z,16.88
2023-03-03T06:50:11.136Z,17.10
2023-03-03T06:53:17.696Z,16.20
2023-03-03T06:56:09.197Z,16.17
2023-03-03T06:58:57.263Z,15.57
2023-03-03T07:01:44.332Z,15.20
2023-03-03T07:04:34.116Z,16.33
2023-03-03T07:07:25.202Z,15.68
2023-03-03T07:10:31.553Z,16.65
2023-03-03T07:13:26.167Z,17.90
2023-03-03T07:16:13.655Z,16.95
2023-03-03T07:19:05.496Z,18.13
2023-03-03T07:21:52.894Z,17.35
2023-03-03T07:24:39.068Z,18.38
2023-03-03T07:27:27.952Z,21.25
2023-03-03T07:30:28.419Z,19.27
2023-03-03T07:33:38.326Z,21.33
2023-03-03T07:36:28.942Z,24.75
2023-03-03T07:39:39.133Z,21.70
2023-03-03T07:42:38.440Z,22.55
2023-03-03T07:45:47.604Z,21.90
2023-03-03T07:48:37.920Z,21.88
2023-03-03T07:51:29.152Z,20.60
2023-03-03T07:54:30.077Z,21.52
2023-03-03T07:57:38.041Z,24.48
2023-03-03T08:00:24.684Z,28.75
2023-03-03T08:03:16.975Z,34.20
2023-03-03T08:06:25.418Z,31.45
2023-03-03T08:09:11.339Z,31.90
2023-03-03T08:12:02.439Z,30.73
2023-03-03T08:14:51.302Z,24.77
2023-03-03T08:17:39.401Z,22.00
2023-03-03T08:20:46.560Z,20.10
2023-03-03T08:23:32.782Z,21.90
2023-03-03T08:26:19.886Z,19.60
2023-03-03T08:29:06.005Z,18.73
2023-03-03T08:31:51.885Z,18.98
2023-03-03T08:34:37.909Z,19.40
2023-03-03T08:37:23.838Z,18.45
2023-03-03T08:40:10.440Z,21.67
2023-03-03T08:42:58.189Z,19.50
2023-03-03T08:45:51.726Z,14.57
2023-03-03T08:48:38.266Z,19.58
2023-03-03T08:51:25.476Z,19.48
2023-03-03T08:54:11.372Z,20.48
2023-03-03T08:56:57.196Z,12.60
2023-03-03T08:59:43.175Z,11.43
2023-03-03T09:02:29.029Z,11.27
2023-03-03T09:05:15.280Z,12.43
2023-03-03T09:08:01.580Z,16.02
2023-03-03T09:10:47.439Z,13.27
2023-03-03T09:13:33.812Z,12.05
2023-03-03T09:16:21.862Z,13.75
2023-03-03T09:19:22.127Z,14.93
2023-03-03T09:22:34.442Z,16.25
2023-03-03T09:25:39.766Z,16.13
2023-03-03T09:28:32.009Z,14.15
2023-03-03T09:31:39.834Z,16.50
2023-03-03T09:34:44.006Z,16.88
2023-03-03T09:37:36.231Z,16.58
2023-03-03T09:40:57.196Z,14.95
2023-03-03T09:43:54.784Z,11.75
2023-03-03T09:46:59.338Z,10.93
2023-03-03T09:50:13.052Z,14.73
2023-03-03T09:53:05.117Z,26.02
2023-03-03T09:55:51.335Z,17.42
2023-03-03T09:58:58.970Z,15.05
2023-03-03T10:01:58.559Z,15.18
2023-03-03T10:05:14.776Z,15.98
2023-03-03T10:08:03.803Z,15.63
2023-03-03T10:11:01.897Z,16.15
2023-03-03T10:13:56.883Z,19.13
2023-03-03T10:17:04.500Z,22.02
2023-03-03T10:20:09.661Z,21.77
2023-03-03T10:22:59.593Z,22.88
2023-03-03T10:26:05.772Z,20.65
2023-03-03T10:29:00.853Z,21.00
2023-03-03T10:32:22.238Z,22.45
2023-03-03T10:35:35.088Z,21.60
2023-03-03T10:38:36.365Z,15.93
2023-03-03T10:41:44.350Z,17.40
2023-03-03T10:44:45.437Z,18.52
2023-03-03T10:47:35.924Z,16.00
2023-03-03T10:50:46.760Z,16.77
2023-03-03T10:53:38.953Z,17.38
2023-03-03T10:56:53.533Z,15.53
2023-03-03T11:00:18.295Z,13.93
2023-03-03T11:03:35.559Z,15.77
2023-03-03T11:06:36.526Z,15.55
2023-03-03T11:09:46.460Z,15.50
2023-03-03T11:12:47.967Z,12.57
2023-03-03T11:15:58.880Z,10.80
2023-03-03T11:19:12.988Z,10.32
2023-03-03T11:22:05.477Z,11.45
2023-03-03T11:25:08.919Z,11.77
2023-03-03T11:28:09.581Z,10.35
2023-03-03T11:31:07.375Z,9.48
2023-03-03T11:33:54.192Z,8.30
2023-03-03T11:36:46.135Z,7.93
2023-03-03T11:39:33.409Z,11.32
2023-03-03T11:42:26.739Z,9.60
2023-03-03T11:45:19.150Z,9.70
2023-03-03T11:51:07.770Z,11.52
2023-03-03T11:54:05.490Z,10.30
2023-03-03T11:56:55.302Z,10.13
2023-03-03T12:00:09.473Z,10.80
2023-03-03T12:03:01.642Z,9.93
2023-03-03T12:06:24.303Z,11.40
2023-03-03T12:09:25.636Z,10.45
2023-03-03T12:12:24.614Z,11.18
2023-03-03T12:15:51.842Z,10.70
2023-03-03T12:18:47.064Z,8.70
2023-03-03T12:21:57.781Z,8.23
2023-03-03T12:25:02.580Z,9.25
2023-03-03T12:28:09.334Z,7.97
2023-03-03T12:31:01.999Z,9.63
2023-03-03T12:34:13.105Z,9.30
2023-03-03T12:37:33.309Z,8.43
2023-03-03T12:40:25.364Z,8.98
2023-03-03T12:43:17.663Z,8.25
2023-03-03T12:46:15.759Z,8.80
2023-03-03T12:49:02.160Z,8.30
2023-03-03T12:52:14.637Z,8.30
2023-03-03T12:55:11.817Z,8.30
2023-03-03T12:58:10.142Z,7.38
2023-03-03T13:01:16.553Z,8.15
2023-03-03T13:04:02.356Z,7.00
2023-03-03T13:07:11.405Z,7.78
2023-03-03T13:10:03.558Z,6.70
2023-03-03T13:13:26.827Z,7.53
2023-03-03T13:16:40.405Z,7.43
2023-03-03T13:19:39.375Z,6.72
2023-03-03T13:22:43.535Z,6.35
2023-03-03T13:25:36.303Z,6.20
2023-03-03T13:28:30.943Z,6.43
2023-03-03T13:31:26.549Z,5.30
2023-03-03T13:34:30.644Z,6.18
2023-03-03T13:37:21.311Z,6.07
2023-03-03T13:40:13.667Z,6.00
2023-03-03T13:43:03.267Z,5.15
2023-03-03T13:46:45.232Z,4.65
2023-03-03T13:49:31.440Z,4.70
2023-03-03T13:52:51.102Z,4.90
2023-03-03T13:55:45.292Z,5.75
2023-03-03T13:58:39.793Z,5.80
2023-03-03T14:01:35.863Z,5.53
2023-03-03T14:04:54.077Z,5.65
2023-03-03T14:07:50.288Z,6.55
2023-03-03T14:10:44.976Z,5.82
2023-03-03T14:13:37.665Z,5.03
2023-03-03T14:16:52.639Z,5.18
2023-03-03T14:19:48.119Z,5.82
2023-03-03T14:23:21.708Z,5.30
2023-03-03T14:26:09.649Z,5.22
2023-03-03T14:29:17.126Z,5.97
2023-03-03T14:32:21.523Z,5.00
2023-03-03T14:35:18.321Z,6.50
2023-03-03T14:38:17.731Z,7.45
2023-03-03T14:41:21.212Z,6.72
2023-03-03T14:44:22.578Z,5.78
2023-03-03T14:47:17.246Z,7.90
2023-03-03T14:50:36.400Z,8.30
2023-03-03T14:53:34.716Z,10.35
2023-03-03T14:56:25.405Z,10.90
2023-03-03T14:59:23.874Z,13.13
2023-03-03T15:02:16.022Z,12.73
2023-03-03T15:05:30.526Z,11.32
2023-03-03T15:08:25.121Z,8.02
2023-03-03T15:11:21.558Z,8.90
2023-03-03T15:14:14.537Z,9.38
2023-03-03T15:17:21.101Z,9.25
2023-03-03T15:20:20.185Z,4.55
2023-03-03T15:23:25.028Z,5.28
2023-03-03T15:26:33.012Z,6.05
2023-03-03T15:29:42.454Z,7.00
2023-03-03T15:32:31.065Z,7.07
2023-03-03T15:35:51.445Z,7.78
2023-03-03T15:39:01.210Z,8.25
2023-03-03T15:42:05.922Z,9.77
2023-03-03T15:45:15.410Z,7.43
2023-03-03T15:48:07.471Z,6.25
2023-03-03T15:51:32.476Z,5.68
2023-03-03T15:54:31.055Z,6.93
2023-03-03T15:57:32.615Z,7.30
2023-03-03T16:00:22.296Z,7.78
2023-03-03T16:03:18.004Z,8.02
2023-03-03T16:06:12.308Z,6.95
2023-03-03T16:09:07.177Z,7.32
2023-03-03T16:12:34.512Z,6.43
2023-03-03T16:15:26.364Z,4.70
2023-03-03T16:18:27.860Z,9.45
2023-03-03T16:21:52.286Z,6.90
2023-03-03T16:25:04.444Z,6.10
2023-03-03T16:28:07.398Z,6.03
2023-03-03T16:31:19.525Z,10.23
2023-03-03T16:34:13.947Z,10.63
2023-03-03T16:37:29.943Z,10.43
2023-03-03T16:40:26.532Z,9.52
2023-03-03T16:43:42.866Z,10.00
2023-03-03T16:46:37.293Z,13.05
2023-03-03T16:49:46.198Z,14.23
2023-03-03T16:52:48.351Z,12.20
2023-03-03T16:56:08.763Z,9.35
2023-03-03T16:59:06.995Z,9.57
2023-03-03T17:02:04.221Z,10.93
2023-03-03T17:05:06.317Z,9.07
2023-03-03T17:07:55.253Z,7.75
2023-03-03T17:10:56.706Z,8.10
2023-03-03T17:14:04.429Z,8.10
2023-03-03T17:17:12.508Z,8.07
2023-03-03T17:20:16.637Z,7.28
2023-03-03T17:23:40.639Z,9.10
2023-03-03T17:26:39.164Z,7.65
2023-03-03T17:29:56.637Z,8.73
2023-03-03T17:33:07.754Z,8.77
2023-03-03T17:36:32.676Z,8.05
2023-03-03T17:39:57.736Z,10.25
2023-03-03T17:42:45.596Z,14.75
2023-03-03T17:45:35.533Z,14.82
2023-03-03T17:48:32.217Z,20.00
2023-03-03T17:51:49.541Z,17.10
2023-03-03T17:54:59.139Z,18.60
2023-03-03T17:58:06.958Z,14.20
2023-03-03T18:01:13.704Z,20.27
2023-03-03T18:04:15.987Z,20.88
2023-03-03T18:07:39.573Z,30.85
2023-03-03T18:10:43.360Z,30.25
2023-03-03T18:13:38.774Z,28.73
2023-03-03T18:16:33.755Z,28.55
2023-03-03T18:19:57.465Z,33.78
2023-03-03T18:22:52.248Z,28.10
2023-03-03T18:25:58.782Z,30.38
2023-03-03T18:28:50.615Z,25.98
2023-03-03T18:31:59.731Z,23.77
2023-03-03T18:34:45.786Z,23.00
2023-03-03T18:37:31.930Z,22.30
2023-03-03T18:40:30.174Z,21.45
2023-03-03T18:43:41.159Z,20.23
2023-03-03T18:46:27.185Z,18.80
2023-03-03T18:49:13.164Z,18.40
2023-03-03T18:52:21.419Z,17.77
2023-03-03T18:55:10.508Z,18.58
2023-03-03T18:58:19.403Z,17.88
2023-03-03T19:01:10.645Z,15.90
2023-03-03T19:04:10.021Z,16.13
2023-03-03T19:07:09.778Z,14.93
2023-03-03T19:09:58.860Z,14.77
2023-03-03T19:12:58.183Z,15.48
2023-03-03T19:15:46.894Z,15.48
2023-03-03T19:18:41.765Z,14.77
2023-03-03T19:21:33.346Z,13.88
2023-03-03T19:24:34.191Z,10.67
2023-03-03T19:28:18.893Z,9.80
2023-03-03T19:31:17.392Z,8.63
2023-03-03T19:34:34.260Z,9.07
2023-03-03T19:38:11.927Z,9.60
2023-03-03T19:41:37.671Z,9.30
2023-03-03T19:44:41.990Z,9.45
2023-03-03T19:47:41.546Z,11.05
2023-03-03T19:50:35.046Z,10.13
2023-03-03T19:53:31.686Z,10.48
2023-03-03T19:56:26.708Z,10.65
2023-03-03T19:59:16.961Z,11.82
2023-03-03T20:02:24.794Z,13.00
2023-03-03T20:05:17.054Z,11.70
2023-03-03T20:08:27.886Z,12.20
2023-03-03T20:11:28.465Z,13.90
2023-03-03T20:14:28.661Z,14.32
2023-03-03T20:17:30.867Z,13.68
2023-03-03T20:20:35.847Z,12.18
2023-03-03T20:23:36.744Z,11.65
2023-03-03T20:26:31.775Z,11.02
2023-03-03T20:29:36.649Z,12.10
2023-03-03T20:32:47.694Z,12.60
2023-03-03T20:35:54.433Z,12.52
2023-03-03T20:38:44.636Z,11.55
2023-03-03T20:41:34.783Z,11.25
2023-03-03T20:44:51.775Z,11.57
2023-03-03T20:47:45.149Z,11.75
2023-03-03T20:50:37.408Z,11.98
2023-03-03T20:53:49.493Z,12.95
2023-03-03T20:56:35.940Z,14.98
2023-03-03T20:59:33.148Z,15.68
2023-03-03T21:02:39.475Z,18.67
2023-03-03T21:05:25.778Z,17.75
2023-03-03T21:08:11.892Z,18.48
2023-03-03T21:10:57.809Z,17.25
2023-03-03T21:13:52.247Z,18.35
2023-03-03T21:16:41.168Z,20.00
2023-03-03T21:19:36.596Z,20.60
2023-03-03T21:22:22.315Z,17.00
2023-03-03T21:25:12.718Z,18.00
2023-03-03T21:28:20.479Z,16.63
2023-03-03T21:31:13.887Z,17.23
2023-03-03T21:34:00.081Z,18.55
2023-03-03T21:36:49.935Z,18.48
2023-03-03T21:39:38.452Z,16.52
2023-03-03T21:42:41.794Z,16.38
2023-03-03T21:45:30.147Z,16.90
2023-03-03T21:48:16.489Z,16.92
2023-03-03T21:51:02.471Z,16.23
2023-03-03T21:53:48.648Z,14.65
2023-03-03T21:56:35.689Z,15.57
2023-03-03T21:59:22.020Z,15.25
2023-03-03T22:02:08.455Z,15.45
2023-03-03T22:04:54.320Z,15.43
2023-03-03T22:07:40.116Z,14.35
2023-03-03T22:10:26.082Z,14.43
2023-03-03T22:13:12.201Z,16.83
2023-03-03T22:15:58.592Z,15.15
2023-03-03T22:18:44.429Z,13.32
2023-03-03T22:21:39.716Z,15.55
2023-03-03T22:24:26.292Z,14.65
2023-03-03T22:27:12.415Z,15.77
2023-03-03T22:29:58.623Z,15.40
2023-03-03T22:32:44.433Z,16.23
2023-03-03T22:35:30.621Z,15.52
2023-03-03T22:38:17.106Z,15.95
2023-03-03T22:41:03.448Z,14.50
2023-03-03T22:43:49.384Z,15.70
2023-03-03T22:46:35.352Z,13.45
2023-03-03T22:49:21.145Z,15.38
2023-03-03T22:52:07.071Z,14.65
2023-03-03T22:54:52.922Z,14.90
2023-03-03T22:57:38.747Z,15.55
2023-03-03T23:00:24.633Z,15.40
2023-03-03T23:03:11.072Z,14.20
2023-03-03T23:05:56.931Z,12.70
2023-03-03T23:08:42.771Z,14.20
2023-03-03T23:11:28.672Z,15.02
2023-03-03T23:14:14.808Z,15.20
2023-03-03T23:17:00.865Z,14.93
2023-03-03T23:19:47.517Z,13.88
2023-03-03T23:22:33.636Z,13.65
2023-03-03T23:25:20.048Z,14.40
2023-03-03T23:28:06.479Z,15.27
2023-03-03T23:30:52.579Z,14.25
2023-03-03T23:33:38.457Z,13.10
2023-03-03T23:36:24.355Z,12.73
2023-03-03T23:39:10.211Z,13.18
2023-03-03T23:41:56.119Z,13.73
2023-03-03T23:44:42.035Z,14.90
2023-03-03T23:47:27.945Z,13.35
2023-03-03T23:50:14.432Z,13.55
2023-03-03T23:53:00.207Z,13.73
2023-03-03T23:55:46.026Z,13.23
2023-03-03T23:58:32.051Z,12.05
